sensor_id;sensor_type;location;lat;lon;timestamp;pressure;altitude;pressure_sealevel;temperature;humidity
6425;BME280;12193;42.642;23.384;2022-07-29T00:01:34;94645.50;;;18.22;100.00
6425;BME280;12193;42.642;23.384;2022-07-29T00:04:03;94660.16;;;18.13;100.00
6425;BME280;12193;42.642;23.384;2022-07-29T00:06:35;94653.31;;;17.96;100.00
6425;BME280;12193;42.642;23.384;2022-07-29T00:09:05;94652.88;;;18.04;100.00
6425;BME280;12193;42.642;23.384;2022-07-29T00:11:34;94664.28;;;18.09;100.00
6425;BME280;12193;42.642;23.384;2022-07-29T00:14:04;94665.63;;;18.12;100.00
6425;BME280;12193;42.642;23.384;2022-07-29T00:16:33;94672.00;;;18.16;100.00
6425;BME280;12193;42.642;23.384;2022-07-29T00:19:04;94672.16;;;18.26;100.00
6425;BME280;12193;42.642;23.384;2022-07-29T00:21:36;94670.34;;;18.48;100.00
6425;BME280;12193;42.642;23.384;2022-07-29T00:24:06;94674.75;;;18.42;100.00
6425;BME280;12193;42.642;23.384;2022-07-29T00:26:35;94681.50;;;18.55;100.00
6425;BME280;12193;42.642;23.384;2022-07-29T00:29:04;94674.00;;;18.47;100.00
6425;BME280;12193;42.642;23.384;2022-07-29T00:31:34;94673.66;;;18.60;100.00
6425;BME280;12193;42.642;23.384;2022-07-29T00:34:03;94667.19;;;18.67;100.00
6425;BME280;12193;42.642;23.384;2022-07-29T00:36:55;94659.69;;;18.81;100.00
6425;BME280;12193;42.642;23.384;2022-07-29T00:39:22;94658.69;;;18.86;100.00
6425;BME280;12193;42.642;23.384;2022-07-29T00:41:51;94652.84;;;18.80;100.00
6425;BME280;12193;42.642;23.384;2022-07-29T00:44:20;94648.59;;;18.57;100.00
6425;BME280;12193;42.642;23.384;2022-07-29T00:46:50;94654.00;;;18.67;100.00
6425;BME280;12193;42.642;23.384;2022-07-29T00:49:19;94662.59;;;18.58;100.00
6425;BME280;12193;42.642;23.384;2022-07-29T00:51:49;94665.03;;;18.43;100.00
6425;BME280;12193;42.642;23.384;2022-07-29T00:54:22;94659.53;;;18.44;100.00
6425;BME280;12193;42.642;23.384;2022-07-29T00:56:52;94665.44;;;18.35;100.00
6425;BME280;12193;42.642;23.384;2022-07-29T00:59:22;94662.06;;;18.39;100.00
6425;BME280;12193;42.642;23.384;2022-07-29T01:01:51;94665.41;;;18.51;100.00
6425;BME280;12193;42.642;23.384;2022-07-29T01:04:21;94664.19;;;18.59;100.00
6425;BME280;12193;42.642;23.384;2022-07-29T01:06:51;94655.41;;;18.75;100.00
6425;BME280;12193;42.642;23.384;2022-07-29T01:09:25;94645.78;;;18.85;100.00
6425;BME280;12193;42.642;23.384;2022-07-29T01:11:55;94654.84;;;18.94;100.00
6425;BME280;12193;42.642;23.384;2022-07-29T01:14:26;94652.38;;;18.87;100.00
6425;BME280;12193;42.642;23.384;2022-07-29T01:16:59;94644.19;;;18.84;100.00
6425;BME280;12193;42.642;23.384;2022-07-29T01:19:52;94651.34;;;18.88;100.00
6425;BME280;12193;42.642;23.384;2022-07-29T01:22:29;94660.94;;;18.73;100.00
6425;BME280;12193;42.642;23.384;2022-07-29T01:25:27;94652.41;;;18.66;100.00
6425;BME280;12193;42.642;23.384;2022-07-29T01:28:12;94651.16;;;18.95;100.00
6425;BME280;12193;42.642;23.384;2022-07-29T01:30:51;94646.34;;;18.87;100.00
6425;BME280;12193;42.642;23.384;2022-07-29T01:33:22;94649.44;;;18.84;100.00
6425;BME280;12193;42.642;23.384;2022-07-29T01:36:09;94645.72;;;19.06;100.00
6425;BME280;12193;42.642;23.384;2022-07-29T01:38:41;94644.19;;;18.84;100.00
6425;BME280;12193;42.642;23.384;2022-07-29T01:41:14;94646.63;;;18.90;100.00
6425;BME280;12193;42.642;23.384;2022-07-29T01:43:49;94643.34;;;18.79;100.00
6425;BME280;12193;42.642;23.384;2022-07-29T01:46:28;94639.88;;;18.73;100.00
6425;BME280;12193;42.642;23.384;2022-07-29T01:49:04;94636.13;;;18.95;100.00
6425;BME280;12193;42.642;23.384;2022-07-29T01:51:41;94630.81;;;18.90;100.00
6425;BME280;12193;42.642;23.384;2022-07-29T01:54:16;94631.31;;;18.87;100.00
6425;BME280;12193;42.642;23.384;2022-07-29T01:56:50;94634.94;;;18.60;100.00
6425;BME280;12193;42.642;23.384;2022-07-29T01:59:20;94641.63;;;18.46;100.00
6425;BME280;12193;42.642;23.384;2022-07-29T02:01:54;94642.88;;;18.22;100.00
6425;BME280;12193;42.642;23.384;2022-07-29T02:04:24;94642.91;;;18.06;100.00
6425;BME280;12193;42.642;23.384;2022-07-29T02:06:57;94631.44;;;18.12;100.00
6425;BME280;12193;42.642;23.384;2022-07-29T02:09:29;94626.56;;;18.04;100.00
6425;BME280;12193;42.642;23.384;2022-07-29T02:12:00;94630.56;;;18.06;100.00
6425;BME280;12193;42.642;23.384;2022-07-29T02:14:33;94622.97;;;17.88;100.00
6425;BME280;12193;42.642;23.384;2022-07-29T02:17:06;94622.63;;;17.85;100.00
6425;BME280;12193;42.642;23.384;2022-07-29T02:19:37;94621.06;;;17.68;100.00
6425;BME280;12193;42.642;23.384;2022-07-29T02:22:07;94620.34;;;17.56;100.00
6425;BME280;12193;42.642;23.384;2022-07-29T02:24:38;94620.34;;;17.56;100.00
6425;BME280;12193;42.642;23.384;2022-07-29T02:27:10;94615.69;;;17.41;100.00
6425;BME280;12193;42.642;23.384;2022-07-29T02:29:41;94620.38;;;17.39;100.00
6425;BME280;12193;42.642;23.384;2022-07-29T02:32:16;94621.00;;;17.46;100.00
6425;BME280;12193;42.642;23.384;2022-07-29T02:34:46;94630.59;;;17.73;100.00
6425;BME280;12193;42.642;23.384;2022-07-29T02:37:17;94620.97;;;17.79;100.00
6425;BME280;12193;42.642;23.384;2022-07-29T02:39:48;94619.94;;;17.80;100.00
6425;BME280;12193;42.642;23.384;2022-07-29T02:42:22;94619.00;;;17.70;100.00
6425;BME280;12193;42.642;23.384;2022-07-29T02:44:52;94616.94;;;17.72;100.00
6425;BME280;12193;42.642;23.384;2022-07-29T02:47:34;94606.94;;;17.73;100.00
6425;BME280;12193;42.642;23.384;2022-07-29T02:50:08;94601.69;;;17.73;100.00
6425;BME280;12193;42.642;23.384;2022-07-29T02:52:42;94602.50;;;17.74;100.00
6425;BME280;12193;42.642;23.384;2022-07-29T02:55:18;94605.38;;;17.73;100.00
6425;BME280;12193;42.642;23.384;2022-07-29T03:00:26;94596.41;;;17.90;100.00
6425;BME280;12193;42.642;23.384;2022-07-29T03:03:00;94609.94;;;17.98;100.00
6425;BME280;12193;42.642;23.384;2022-07-29T03:05:32;94616.94;;;18.09;100.00
6425;BME280;12193;42.642;23.384;2022-07-29T03:08:04;94611.59;;;18.04;100.00
6425;BME280;12193;42.642;23.384;2022-07-29T03:10:35;94599.56;;;18.08;100.00
6425;BME280;12193;42.642;23.384;2022-07-29T03:13:07;94597.69;;;18.09;100.00
6425;BME280;12193;42.642;23.384;2022-07-29T03:15:37;94605.19;;;18.17;100.00
6425;BME280;12193;42.642;23.384;2022-07-29T03:18:10;94609.59;;;18.11;100.00
6425;BME280;12193;42.642;23.384;2022-07-29T03:20:40;94609.22;;;18.03;100.00
6425;BME280;12193;42.642;23.384;2022-07-29T03:23:09;94614.47;;;18.03;100.00
6425;BME280;12193;42.642;23.384;2022-07-29T03:25:38;94608.47;;;18.07;100.00
6425;BME280;12193;42.642;23.384;2022-07-29T03:28:08;94608.72;;;18.06;100.00
6425;BME280;12193;42.642;23.384;2022-07-29T03:30:38;94607.63;;;18.02;100.00
6425;BME280;12193;42.642;23.384;2022-07-29T03:33:10;94608.28;;;17.92;100.00
6425;BME280;12193;42.642;23.384;2022-07-29T03:35:40;94606.53;;;17.81;100.00
6425;BME280;12193;42.642;23.384;2022-07-29T03:38:09;94611.03;;;17.65;100.00
6425;BME280;12193;42.642;23.384;2022-07-29T03:40:42;94608.25;;;17.55;100.00
6425;BME280;12193;42.642;23.384;2022-07-29T03:43:15;94613.00;;;17.74;100.00
6425;BME280;12193;42.642;23.384;2022-07-29T03:45:49;94619.00;;;17.53;100.00
6425;BME280;12193;42.642;23.384;2022-07-29T03:48:24;94615.47;;;17.64;100.00
6425;BME280;12193;42.642;23.384;2022-07-29T03:50:55;94620.66;;;17.75;100.00
6425;BME280;12193;42.642;23.384;2022-07-29T03:53:25;94618.19;;;17.85;100.00
6425;BME280;12193;42.642;23.384;2022-07-29T03:55:58;94626.03;;;18.02;100.00
6425;BME280;12193;42.642;23.384;2022-07-29T03:58:30;94628.78;;;18.28;100.00
6425;BME280;12193;42.642;23.384;2022-07-29T04:01:00;94633.19;;;18.44;100.00
6425;BME280;12193;42.642;23.384;2022-07-29T04:03:33;94633.50;;;18.26;100.00
6425;BME280;12193;42.642;23.384;2022-07-29T04:06:04;94623.91;;;18.20;100.00
6425;BME280;12193;42.642;23.384;2022-07-29T04:08:34;94624.78;;;18.26;100.00
6425;BME280;12193;42.642;23.384;2022-07-29T04:11:05;94631.50;;;18.33;100.00
6425;BME280;12193;42.642;23.384;2022-07-29T04:13:34;94624.25;;;18.45;100.00
6425;BME280;12193;42.642;23.384;2022-07-29T04:16:04;94632.72;;;18.47;100.00
6425;BME280;12193;42.642;23.384;2022-07-29T04:18:36;94626.75;;;18.57;100.00
6425;BME280;12193;42.642;23.384;2022-07-29T04:21:12;94628.44;;;18.68;100.00
6425;BME280;12193;42.642;23.384;2022-07-29T04:23:41;94632.66;;;18.64;100.00
6425;BME280;12193;42.642;23.384;2022-07-29T04:26:11;94632.94;;;18.67;100.00
6425;BME280;12193;42.642;23.384;2022-07-29T04:28:44;94631.41;;;18.71;100.00
6425;BME280;12193;42.642;23.384;2022-07-29T04:31:13;94625.88;;;18.73;100.00
6425;BME280;12193;42.642;23.384;2022-07-29T04:33:45;94619.84;;;18.72;100.00
6425;BME280;12193;42.642;23.384;2022-07-29T04:36:14;94633.16;;;18.66;100.00
6425;BME280;12193;42.642;23.384;2022-07-29T04:38:44;94630.47;;;18.82;100.00
6425;BME280;12193;42.642;23.384;2022-07-29T04:41:13;94633.50;;;18.95;100.00
6425;BME280;12193;42.642;23.384;2022-07-29T04:43:42;94630.56;;;19.13;100.00
6425;BME280;12193;42.642;23.384;2022-07-29T04:46:11;94629.41;;;19.09;100.00
6425;BME280;12193;42.642;23.384;2022-07-29T04:48:41;94635.19;;;19.06;100.00
6425;BME280;12193;42.642;23.384;2022-07-29T04:51:13;94631.72;;;19.27;100.00
6425;BME280;12193;42.642;23.384;2022-07-29T04:53:42;94637.66;;;19.39;100.00
6425;BME280;12193;42.642;23.384;2022-07-29T04:56:12;94636.25;;;19.63;100.00
6425;BME280;12193;42.642;23.384;2022-07-29T04:58:43;94645.41;;;19.87;100.00
6425;BME280;12193;42.642;23.384;2022-07-29T05:01:13;94641.03;;;19.97;99.37
6425;BME280;12193;42.642;23.384;2022-07-29T05:03:43;94649.63;;;20.24;98.22
6425;BME280;12193;42.642;23.384;2022-07-29T05:06:15;94650.06;;;20.58;95.96
6425;BME280;12193;42.642;23.384;2022-07-29T05:08:45;94651.16;;;20.72;94.77
6425;BME280;12193;42.642;23.384;2022-07-29T05:11:14;94645.50;;;21.09;93.51
6425;BME280;12193;42.642;23.384;2022-07-29T05:13:43;94642.97;;;21.69;88.56
6425;BME280;12193;42.642;23.384;2022-07-29T05:16:13;94647.63;;;22.42;84.94
6425;BME280;12193;42.642;23.384;2022-07-29T05:18:42;94652.19;;;22.06;85.37
6425;BME280;12193;42.642;23.384;2022-07-29T05:21:11;94654.00;;;22.41;85.33
6425;BME280;12193;42.642;23.384;2022-07-29T05:23:43;94662.56;;;22.91;82.37
6425;BME280;12193;42.642;23.384;2022-07-29T05:26:13;94652.59;;;23.26;79.28
6425;BME280;12193;42.642;23.384;2022-07-29T05:28:42;94656.22;;;23.40;78.44
6425;BME280;12193;42.642;23.384;2022-07-29T05:31:11;94644.03;;;24.06;76.04
6425;BME280;12193;42.642;23.384;2022-07-29T05:33:41;94648.69;;;24.94;72.48
6425;BME280;12193;42.642;23.384;2022-07-29T05:36:10;94646.19;;;23.66;75.75
6425;BME280;12193;42.642;23.384;2022-07-29T05:38:39;94647.03;;;24.00;75.39
6425;BME280;12193;42.642;23.384;2022-07-29T05:41:11;94644.66;;;24.55;74.36
6425;BME280;12193;42.642;23.384;2022-07-29T05:43:41;94642.84;;;24.45;72.31
6425;BME280;12193;42.642;23.384;2022-07-29T05:46:10;94644.88;;;24.30;72.91
6425;BME280;12193;42.642;23.384;2022-07-29T05:48:39;94650.94;;;23.79;75.42
6425;BME280;12193;42.642;23.384;2022-07-29T05:51:09;94648.47;;;24.39;72.67
6425;BME280;12193;42.642;23.384;2022-07-29T05:53:38;94650.94;;;23.79;74.83
6425;BME280;12193;42.642;23.384;2022-07-29T05:56:11;94653.22;;;23.52;77.11
6425;BME280;12193;42.642;23.384;2022-07-29T05:58:40;94654.25;;;23.56;76.23
6425;BME280;12193;42.642;23.384;2022-07-29T06:01:09;94655.44;;;23.35;77.36
6425;BME280;12193;42.642;23.384;2022-07-29T06:03:39;94649.47;;;23.58;77.19
6425;BME280;12193;42.642;23.384;2022-07-29T06:06:09;94654.63;;;23.39;78.16
6425;BME280;12193;42.642;23.384;2022-07-29T06:08:38;94652.16;;;23.53;77.63
6425;BME280;12193;42.642;23.384;2022-07-29T06:11:08;94659.94;;;24.39;73.87
6425;BME280;12193;42.642;23.384;2022-07-29T06:13:40;94657.22;;;24.91;71.71
6425;BME280;12193;42.642;23.384;2022-07-29T06:16:09;94656.00;;;24.84;72.43
6425;BME280;12193;42.642;23.384;2022-07-29T06:18:38;94657.81;;;24.65;74.01
6425;BME280;12193;42.642;23.384;2022-07-29T06:21:08;94659.31;;;25.18;71.84
6425;BME280;12193;42.642;23.384;2022-07-29T06:23:38;94657.22;;;25.70;69.23
6425;BME280;12193;42.642;23.384;2022-07-29T06:26:07;94650.56;;;24.94;73.28
6425;BME280;12193;42.642;23.384;2022-07-29T06:28:40;94660.19;;;25.32;71.73
6425;BME280;12193;42.642;23.384;2022-07-29T06:31:09;94657.72;;;25.72;71.17
6425;BME280;12193;42.642;23.384;2022-07-29T06:33:39;94658.91;;;26.88;65.76
6425;BME280;12193;42.642;23.384;2022-07-29T06:36:08;94655.06;;;26.67;65.70
6425;BME280;12193;42.642;23.384;2022-07-29T06:38:37;94652.19;;;26.19;68.13
6425;BME280;12193;42.642;23.384;2022-07-29T06:41:08;94650.47;;;25.77;67.84
6425;BME280;12193;42.642;23.384;2022-07-29T06:43:42;94650.44;;;25.96;66.71
6425;BME280;12193;42.642;23.384;2022-07-29T06:46:14;94644.13;;;25.73;68.25
6425;BME280;12193;42.642;23.384;2022-07-29T06:48:44;94651.53;;;25.95;66.70
6425;BME280;12193;42.642;23.384;2022-07-29T06:51:14;94642.19;;;25.79;66.72
6425;BME280;12193;42.642;23.384;2022-07-29T06:53:43;94641.34;;;25.05;69.79
6425;BME280;12193;42.642;23.384;2022-07-29T06:56:13;94647.38;;;25.33;68.71
6425;BME280;12193;42.642;23.384;2022-07-29T06:58:45;94641.66;;;24.80;70.46
6425;BME280;12193;42.642;23.384;2022-07-29T07:01:14;94644.94;;;25.37;69.12
6425;BME280;12193;42.642;23.384;2022-07-29T07:03:43;94648.47;;;25.88;66.58
6425;BME280;12193;42.642;23.384;2022-07-29T07:06:13;94639.72;;;26.46;63.61
6425;BME280;12193;42.642;23.384;2022-07-29T07:08:42;94637.38;;;27.47;59.93
6425;BME280;12193;42.642;23.384;2022-07-29T07:11:12;94629.63;;;25.98;64.74
6425;BME280;12193;42.642;23.384;2022-07-29T07:13:43;94639.16;;;25.12;67.35
6425;BME280;12193;42.642;23.384;2022-07-29T07:16:13;94629.63;;;25.98;64.71
6425;BME280;12193;42.642;23.384;2022-07-29T07:18:43;94634.03;;;26.21;64.85
6425;BME280;12193;42.642;23.384;2022-07-29T07:21:12;94634.50;;;25.59;65.54
6425;BME280;12193;42.642;23.384;2022-07-29T07:23:42;94635.28;;;26.10;63.15
6425;BME280;12193;42.642;23.384;2022-07-29T07:26:11;94638.28;;;26.22;63.23
6425;BME280;12193;42.642;23.384;2022-07-29T07:28:40;94632.22;;;26.03;63.42
6425;BME280;12193;42.642;23.384;2022-07-29T07:31:12;94635.56;;;26.53;62.01
6425;BME280;12193;42.642;23.384;2022-07-29T07:33:41;94632.56;;;25.83;63.76
6425;BME280;12193;42.642;23.384;2022-07-29T07:36:11;94633.88;;;25.99;62.56
6425;BME280;12193;42.642;23.384;2022-07-29T07:38:40;94623.28;;;25.43;64.75
6425;BME280;12193;42.642;23.384;2022-07-29T07:41:09;94623.50;;;25.47;63.80
6425;BME280;12193;42.642;23.384;2022-07-29T07:43:39;94625.81;;;26.62;60.99
6425;BME280;12193;42.642;23.384;2022-07-29T07:46:08;94612.34;;;25.95;61.82
6425;BME280;12193;42.642;23.384;2022-07-29T07:48:40;94623.41;;;26.02;61.95
6425;BME280;12193;42.642;23.384;2022-07-29T07:51:10;94625.03;;;26.17;60.84
6425;BME280;12193;42.642;23.384;2022-07-29T07:53:39;94624.31;;;26.56;60.31
6425;BME280;12193;42.642;23.384;2022-07-29T07:56:10;94612.22;;;27.83;57.14
6425;BME280;12193;42.642;23.384;2022-07-29T07:58:39;94613.03;;;27.48;56.91
6425;BME280;12193;42.642;23.384;2022-07-29T08:01:09;94621.75;;;27.19;56.68
6425;BME280;12193;42.642;23.384;2022-07-29T08:03:41;94629.06;;;27.84;55.59
6425;BME280;12193;42.642;23.384;2022-07-29T08:06:10;94612.13;;;29.35;50.82
6425;BME280;12193;42.642;23.384;2022-07-29T08:08:40;94617.50;;;26.91;54.68
6425;BME280;12193;42.642;23.384;2022-07-29T08:11:09;94614.66;;;27.71;53.99
6425;BME280;12193;42.642;23.384;2022-07-29T08:13:39;94610.09;;;27.94;52.61
6425;BME280;12193;42.642;23.384;2022-07-29T08:16:09;94614.34;;;28.47;51.45
6425;BME280;12193;42.642;23.384;2022-07-29T08:18:45;94604.53;;;30.68;44.88
6425;BME280;12193;42.642;23.384;2022-07-29T08:21:15;94610.94;;;30.83;44.03
6425;BME280;12193;42.642;23.384;2022-07-29T08:23:45;94603.91;;;30.16;44.64
6425;BME280;12193;42.642;23.384;2022-07-29T08:26:16;94610.69;;;31.05;41.91
6425;BME280;12193;42.642;23.384;2022-07-29T08:28:46;94596.47;;;30.22;42.31
6425;BME280;12193;42.642;23.384;2022-07-29T08:31:17;94609.09;;;31.04;40.91
6425;BME280;12193;42.642;23.384;2022-07-29T08:33:49;94598.88;;;31.27;39.13
6425;BME280;12193;42.642;23.384;2022-07-29T08:36:18;94598.72;;;30.66;40.02
6425;BME280;12193;42.642;23.384;2022-07-29T08:38:48;94597.09;;;29.26;43.03
6425;BME280;12193;42.642;23.384;2022-07-29T08:41:18;94598.56;;;29.57;42.82
6425;BME280;12193;42.642;23.384;2022-07-29T08:43:48;94601.72;;;30.64;42.08
6425;BME280;12193;42.642;23.384;2022-07-29T08:46:19;94601.72;;;29.84;42.52
6425;BME280;12193;42.642;23.384;2022-07-29T08:48:51;94596.38;;;29.76;41.63
6425;BME280;12193;42.642;23.384;2022-07-29T08:51:21;94593.03;;;29.20;43.31
6425;BME280;12193;42.642;23.384;2022-07-29T08:53:50;94591.91;;;30.97;40.40
6425;BME280;12193;42.642;23.384;2022-07-29T08:56:20;94592.38;;;30.70;39.78
6425;BME280;12193;42.642;23.384;2022-07-29T08:58:50;94591.63;;;30.90;38.84
6425;BME280;12193;42.642;23.384;2022-07-29T09:01:23;94581.28;;;31.50;37.35
6425;BME280;12193;42.642;23.384;2022-07-29T09:03:58;94579.78;;;32.34;35.91
6425;BME280;12193;42.642;23.384;2022-07-29T09:06:31;94597.38;;;31.17;37.84
6425;BME280;12193;42.642;23.384;2022-07-29T09:09:01;94587.97;;;31.23;37.92
6425;BME280;12193;42.642;23.384;2022-07-29T09:11:32;94579.63;;;31.66;37.54
6425;BME280;12193;42.642;23.384;2022-07-29T09:14:02;94579.59;;;30.96;39.22
6425;BME280;12193;42.642;23.384;2022-07-29T09:16:45;94583.69;;;31.02;39.07
6425;BME280;12193;42.642;23.384;2022-07-29T09:19:26;94582.56;;;30.37;40.69
6425;BME280;12193;42.642;23.384;2022-07-29T09:21:57;94578.16;;;30.70;39.74
6425;BME280;12193;42.642;23.384;2022-07-29T09:24:26;94574.94;;;29.51;42.04
6425;BME280;12193;42.642;23.384;2022-07-29T09:26:55;94579.31;;;29.38;42.98
6425;BME280;12193;42.642;23.384;2022-07-29T09:29:25;94578.88;;;29.70;42.00
6425;BME280;12193;42.642;23.384;2022-07-29T09:31:55;94577.75;;;29.88;42.13
6425;BME280;12193;42.642;23.384;2022-07-29T09:34:28;94575.22;;;29.24;42.94
6425;BME280;12193;42.642;23.384;2022-07-29T09:36:58;94573.16;;;29.21;43.25
6425;BME280;12193;42.642;23.384;2022-07-29T09:39:28;94564.47;;;29.91;42.20
6425;BME280;12193;42.642;23.384;2022-07-29T09:41:59;94576.81;;;31.13;39.53
6425;BME280;12193;42.642;23.384;2022-07-29T09:44:42;94579.50;;;29.67;43.43
6425;BME280;12193;42.642;23.384;2022-07-29T09:47:11;94573.34;;;30.83;39.76
6425;BME280;12193;42.642;23.384;2022-07-29T09:49:54;94572.94;;;31.02;39.38
6425;BME280;12193;42.642;23.384;2022-07-29T09:52:25;94557.78;;;31.99;38.11
6425;BME280;12193;42.642;23.384;2022-07-29T09:55:04;94562.28;;;30.48;40.59
6425;BME280;12193;42.642;23.384;2022-07-29T09:57:34;94559.41;;;30.90;39.57
6425;BME280;12193;42.642;23.384;2022-07-29T10:00:06;94560.59;;;31.50;39.80
6425;BME280;12193;42.642;23.384;2022-07-29T10:02:38;94538.84;;;32.40;36.72
6425;BME280;12193;42.642;23.384;2022-07-29T10:05:18;94531.81;;;32.72;36.28
6425;BME280;12193;42.642;23.384;2022-07-29T10:07:49;94543.44;;;32.40;37.11
6425;BME280;12193;42.642;23.384;2022-07-29T10:10:20;94547.88;;;32.68;35.85
6425;BME280;12193;42.642;23.384;2022-07-29T10:12:52;94536.84;;;33.48;34.88
6425;BME280;12193;42.642;23.384;2022-07-29T10:15:24;94524.66;;;34.52;32.94
6425;BME280;12193;42.642;23.384;2022-07-29T10:17:55;94531.03;;;34.44;35.02
6425;BME280;12193;42.642;23.384;2022-07-29T10:20:28;94523.25;;;34.89;31.95
6425;BME280;12193;42.642;23.384;2022-07-29T10:22:57;94528.66;;;34.89;32.35
6425;BME280;12193;42.642;23.384;2022-07-29T10:25:27;94518.44;;;33.78;34.33
6425;BME280;12193;42.642;23.384;2022-07-29T10:27:56;94515.88;;;32.79;36.05
6425;BME280;12193;42.642;23.384;2022-07-29T10:30:26;94518.66;;;34.89;32.23
6425;BME280;12193;42.642;23.384;2022-07-29T10:33:22;94521.50;;;35.12;32.95
6425;BME280;12193;42.642;23.384;2022-07-29T10:36:11;94515.34;;;35.49;31.32
6425;BME280;12193;42.642;23.384;2022-07-29T10:38:50;94508.16;;;33.68;32.78
6425;BME280;12193;42.642;23.384;2022-07-29T10:41:37;94508.06;;;35.00;30.82
6425;BME280;12193;42.642;23.384;2022-07-29T10:44:13;94508.25;;;32.81;33.95
6425;BME280;12193;42.642;23.384;2022-07-29T10:46:44;94515.19;;;30.67;37.38
6425;BME280;12193;42.642;23.384;2022-07-29T10:49:15;94510.22;;;30.03;39.39
6425;BME280;12193;42.642;23.384;2022-07-29T10:51:55;94489.00;;;31.66;36.51
6425;BME280;12193;42.642;23.384;2022-07-29T10:54:42;94497.91;;;32.35;34.46
6425;BME280;12193;42.642;23.384;2022-07-29T10:57:17;94486.88;;;32.28;34.41
6425;BME280;12193;42.642;23.384;2022-07-29T10:59:47;94486.78;;;32.72;34.71
6425;BME280;12193;42.642;23.384;2022-07-29T11:02:45;94488.16;;;30.35;38.27
6425;BME280;12193;42.642;23.384;2022-07-29T11:05:18;94489.72;;;31.87;36.00
6425;BME280;12193;42.642;23.384;2022-07-29T11:08:20;94482.72;;;33.02;34.49
6425;BME280;12193;42.642;23.384;2022-07-29T11:10:51;94490.06;;;32.66;35.00
6425;BME280;12193;42.642;23.384;2022-07-29T11:13:51;94483.19;;;32.44;34.92
6425;BME280;12193;42.642;23.384;2022-07-29T11:16:22;94484.19;;;32.28;35.03
6425;BME280;12193;42.642;23.384;2022-07-29T11:19:19;94483.53;;;32.19;35.45
6425;BME280;12193;42.642;23.384;2022-07-29T11:21:48;94467.53;;;33.21;33.82
6425;BME280;12193;42.642;23.384;2022-07-29T11:24:23;94478.38;;;31.82;34.75
6425;BME280;12193;42.642;23.384;2022-07-29T11:27:13;94473.94;;;31.97;36.05
6425;BME280;12193;42.642;23.384;2022-07-29T11:29:53;94467.41;;;33.18;32.89
6425;BME280;12193;42.642;23.384;2022-07-29T11:32:24;94464.69;;;32.31;34.47
6425;BME280;12193;42.642;23.384;2022-07-29T11:35:15;94461.44;;;32.73;33.16
6425;BME280;12193;42.642;23.384;2022-07-29T11:37:45;94463.22;;;32.81;33.60
6425;BME280;12193;42.642;23.384;2022-07-29T11:40:18;94463.16;;;33.17;32.96
6425;BME280;12193;42.642;23.384;2022-07-29T11:42:50;94457.97;;;32.13;33.49
6425;BME280;12193;42.642;23.384;2022-07-29T11:45:22;94451.56;;;32.77;33.38
6425;BME280;12193;42.642;23.384;2022-07-29T11:47:56;94460.97;;;33.34;32.30
6425;BME280;12193;42.642;23.384;2022-07-29T11:50:32;94453.63;;;34.05;30.22
6425;BME280;12193;42.642;23.384;2022-07-29T11:53:03;94447.78;;;33.05;31.89
6425;BME280;12193;42.642;23.384;2022-07-29T11:55:42;94454.72;;;34.16;30.27
6425;BME280;12193;42.642;23.384;2022-07-29T11:58:11;94453.63;;;35.01;28.54
6425;BME280;12193;42.642;23.384;2022-07-29T12:00:41;94440.88;;;35.96;27.46
6425;BME280;12193;42.642;23.384;2022-07-29T12:03:12;94436.22;;;37.16;26.19
6425;BME280;12193;42.642;23.384;2022-07-29T12:05:52;94434.13;;;36.76;27.20
6425;BME280;12193;42.642;23.384;2022-07-29T12:08:22;94434.84;;;35.24;28.51
6425;BME280;12193;42.642;23.384;2022-07-29T12:10:55;94435.28;;;35.86;28.15
6425;BME280;12193;42.642;23.384;2022-07-29T12:13:24;94426.63;;;35.99;28.17
6425;BME280;12193;42.642;23.384;2022-07-29T12:15:55;94440.16;;;35.39;28.17
6425;BME280;12193;42.642;23.384;2022-07-29T12:18:26;94439.56;;;33.14;31.12
6425;BME280;12193;42.642;23.384;2022-07-29T12:21:00;94433.75;;;33.12;31.70
6425;BME280;12193;42.642;23.384;2022-07-29T12:23:31;94443.19;;;33.73;29.97
6425;BME280;12193;42.642;23.384;2022-07-29T12:26:04;94442.16;;;34.39;29.86
6425;BME280;12193;42.642;23.384;2022-07-29T12:28:36;94446.78;;;34.08;28.91
6425;BME280;12193;42.642;23.384;2022-07-29T12:31:12;94438.03;;;33.99;28.88
6425;BME280;12193;42.642;23.384;2022-07-29T12:33:42;94432.13;;;34.70;28.18
6425;BME280;12193;42.642;23.384;2022-07-29T12:36:13;94425.44;;;35.97;26.45
6425;BME280;12193;42.642;23.384;2022-07-29T12:38:43;94427.06;;;35.22;27.92
6425;BME280;12193;42.642;23.384;2022-07-29T12:41:15;94427.44;;;34.36;28.41
6425;BME280;12193;42.642;23.384;2022-07-29T12:43:52;94428.41;;;34.28;29.17
6425;BME280;12193;42.642;23.384;2022-07-29T12:46:22;94429.81;;;33.21;30.43
6425;BME280;12193;42.642;23.384;2022-07-29T12:48:53;94419.59;;;33.15;30.65
6425;BME280;12193;42.642;23.384;2022-07-29T12:51:28;94419.03;;;32.34;33.33
6425;BME280;12193;42.642;23.384;2022-07-29T12:54:04;94422.94;;;32.61;32.58
6425;BME280;12193;42.642;23.384;2022-07-29T12:56:37;94415.09;;;32.68;32.45
6425;BME280;12193;42.642;23.384;2022-07-29T12:59:14;94406.25;;;32.31;32.57
6425;BME280;12193;42.642;23.384;2022-07-29T13:01:45;94399.75;;;32.44;32.89
6425;BME280;12193;42.642;23.384;2022-07-29T13:04:25;94408.63;;;32.33;32.47
6425;BME280;12193;42.642;23.384;2022-07-29T13:06:58;94405.56;;;31.87;33.31
6425;BME280;12193;42.642;23.384;2022-07-29T13:09:36;94410.78;;;31.59;33.49
6425;BME280;12193;42.642;23.384;2022-07-29T13:12:10;94397.91;;;31.77;33.24
6425;BME280;12193;42.642;23.384;2022-07-29T13:14:40;94408.97;;;31.31;34.35
6425;BME280;12193;42.642;23.384;2022-07-29T13:17:12;94401.53;;;31.48;34.22
6425;BME280;12193;42.642;23.384;2022-07-29T13:19:43;94399.56;;;31.57;34.40
6425;BME280;12193;42.642;23.384;2022-07-29T13:22:14;94395.34;;;31.80;34.02
6425;BME280;12193;42.642;23.384;2022-07-29T13:24:48;94391.53;;;31.69;34.21
6425;BME280;12193;42.642;23.384;2022-07-29T13:27:23;94399.94;;;31.68;34.47